createdAt,value
2017-08-25T00:00:07.721Z,1008.13
2017-08-25T00:00:16.474Z,1008.24
2017-08-25T00:00:26.213Z,1008.20
2017-08-25T00:00:35.953Z,1008.15
2017-08-25T00:00:45.692Z,1008.15
2017-08-25T00:00:55.440Z,1008.12
2017-08-25T00:01:05.163Z,1008.21
2017-08-25T00:01:14.908Z,1008.14
2017-08-25T00:01:29.865Z,1008.13
2017-08-25T00:01:43.816Z,1008.15
2017-08-25T00:01:52.589Z,1008.18
2017-08-25T00:02:02.526Z,1008.14
2017-08-25T00:02:17.268Z,1008.13
2017-08-25T00:02:26.020Z,1008.11
2017-08-25T00:02:40.968Z,1008.17
2017-08-25T00:02:49.740Z,1008.10
2017-08-25T00:02:59.473Z,1008.15
2017-08-25T00:03:09.218Z,1008.10
2017-08-25T00:03:18.951Z,1008.11
2017-08-25T00:03:28.689Z,1008.07
2017-08-25T00:03:38.429Z,1008.12
2017-08-25T00:03:48.151Z,1008.13
2017-08-25T00:03:57.932Z,1008.08
2017-08-25T00:04:07.624Z,1008.11
2017-08-25T00:04:17.373Z,1008.10
2017-08-25T00:04:27.137Z,1008.09
2017-08-25T00:04:36.849Z,1008.16
2017-08-25T00:04:46.585Z,1008.08
2017-08-25T00:04:56.317Z,1008.06
2017-08-25T00:05:11.268Z,1008.13
2017-08-25T00:05:20.033Z,1008.04
2017-08-25T00:05:29.784Z,1008.08
2017-08-25T00:05:39.501Z,1008.05
2017-08-25T00:05:49.241Z,1008.15
2017-08-25T00:05:58.980Z,1008.04
2017-08-25T00:06:08.724Z,1008.09
2017-08-25T00:06:18.461Z,1008.16
2017-08-25T00:06:28.824Z,1008.05
2017-08-25T00:06:37.941Z,1008.11
2017-08-25T00:06:56.946Z,1008.02
2017-08-25T00:07:09.653Z,1008.05
2017-08-25T00:07:18.804Z,1008.08
2017-08-25T00:07:28.601Z,1008.03
2017-08-25T00:07:38.305Z,1008.02
2017-08-25T00:07:48.024Z,1008.05
2017-08-25T00:07:57.773Z,1008.01
2017-08-25T00:08:12.710Z,1008.07
2017-08-25T00:08:21.489Z,1008.01
2017-08-25T00:08:31.193Z,1008.05
2017-08-25T00:08:40.924Z,1008.08
2017-08-25T00:08:50.681Z,1008.10
2017-08-25T00:09:00.431Z,1008.09
2017-08-25T00:09:10.324Z,1008.04
2017-08-25T00:09:20.151Z,1007.98
2017-08-25T00:09:29.691Z,1008.07
2017-08-25T00:09:39.380Z,1008.03
2017-08-25T00:09:49.097Z,1008.03
2017-08-25T00:09:58.845Z,1007.99
2017-08-25T00:10:08.593Z,1008.05
2017-08-25T00:10:18.320Z,1008.13
2017-08-25T00:10:38.313Z,1008.15
2017-08-25T00:10:57.679Z,1008.05
2017-08-25T00:11:07.193Z,1008.07
2017-08-25T00:11:16.928Z,1008.06
2017-08-25T00:11:26.673Z,1008.11
2017-08-25T00:11:46.671Z,1008.08
2017-08-25T00:12:00.000Z,1008.00
2017-08-25T00:12:09.129Z,1008.00
2017-08-25T00:12:37.170Z,1008.09
2017-08-25T00:12:57.495Z,1007.99
2017-08-25T00:13:08.273Z,1008.08
2017-08-25T00:13:22.552Z,1008.09
2017-08-25T00:13:31.302Z,1007.98
2017-08-25T00:13:41.052Z,1008.05
2017-08-25T00:14:00.059Z,1008.11
2017-08-25T00:14:19.829Z,1008.08
2017-08-25T00:14:29.953Z,1008.05
2017-08-25T00:14:39.670Z,1008.13
2017-08-25T00:14:49.407Z,1008.08
2017-08-25T00:14:59.120Z,1008.08
2017-08-25T00:15:08.876Z,1008.03
2017-08-25T00:15:27.910Z,1008.07
2017-08-25T00:15:43.574Z,1008.06
2017-08-25T00:15:52.987Z,1008.03
2017-08-25T00:16:02.696Z,1008.06
2017-08-25T00:16:12.424Z,1008.03
2017-08-25T00:16:27.372Z,1008.11
2017-08-25T00:16:36.125Z,1008.05
2017-08-25T00:16:45.861Z,1008.01
2017-08-25T00:16:55.598Z,1007.99
2017-08-25T00:17:05.323Z,1008.02
2017-08-25T00:17:15.063Z,1008.02
2017-08-25T00:17:30.004Z,1008.04
2017-08-25T00:17:38.773Z,1008.01
2017-08-25T00:17:48.520Z,1008.01
2017-08-25T00:17:58.237Z,1007.96
2017-08-25T00:18:07.980Z,1007.99
2017-08-25T00:18:17.711Z,1008.03
2017-08-25T00:18:27.472Z,1008.06
2017-08-25T00:18:46.475Z,1008.03
2017-08-25T00:19:00.198Z,1008.00
2017-08-25T00:19:09.946Z,1008.10
2017-08-25T00:19:19.673Z,1008.01
2017-08-25T00:19:29.424Z,1008.03
2017-08-25T00:19:39.185Z,1008.05
2017-08-25T00:19:48.912Z,1008.09
2017-08-25T00:19:58.629Z,1008.00
2017-08-25T00:20:08.378Z,1007.96
2017-08-25T00:20:18.109Z,1007.99
2017-08-25T00:20:27.848Z,1008.04
2017-08-25T00:20:37.573Z,1008.05
2017-08-25T00:20:47.320Z,1008.07
2017-08-25T00:20:57.121Z,1007.96
2017-08-25T00:21:06.790Z,1007.97
2017-08-25T00:21:16.540Z,1008.02
2017-08-25T00:21:26.345Z,1007.98
2017-08-25T00:21:36.042Z,1008.00
2017-08-25T00:21:45.771Z,1008.04
2017-08-25T00:21:55.478Z,1008.01
2017-08-25T00:22:05.217Z,1007.98
2017-08-25T00:22:14.977Z,1007.98
2017-08-25T00:22:24.708Z,1008.03
2017-08-25T00:22:34.441Z,1007.95
2017-08-25T00:22:44.186Z,1007.99
2017-08-25T00:22:53.917Z,1008.01
2017-08-25T00:23:07.877Z,1008.04
2017-08-25T00:23:17.642Z,1007.98
2017-08-25T00:23:27.361Z,1008.01
2017-08-25T00:23:37.092Z,1007.96
2017-08-25T00:23:46.841Z,1007.97
2017-08-25T00:23:56.563Z,1008.00
2017-08-25T00:24:06.310Z,1007.96
2017-08-25T00:24:16.061Z,1007.96
2017-08-25T00:24:25.805Z,1008.01
2017-08-25T00:24:35.541Z,1008.05
2017-08-25T00:24:50.497Z,1007.98
2017-08-25T00:24:59.213Z,1008.02
2017-08-25T00:25:08.960Z,1007.93
2017-08-25T00:25:18.704Z,1007.94
2017-08-25T00:25:28.450Z,1008.00
2017-08-25T00:25:38.185Z,1007.98
2017-08-25T00:25:47.917Z,1008.01
2017-08-25T00:25:57.645Z,1007.93
2017-08-25T00:26:07.395Z,1007.98
2017-08-25T00:26:21.412Z,1007.90
2017-08-25T00:26:31.106Z,1007.96
2017-08-25T00:26:40.840Z,1007.94
2017-08-25T00:26:50.571Z,1007.99
2017-08-25T00:27:00.322Z,1007.98
2017-08-25T00:27:10.040Z,1007.91
2017-08-25T00:27:19.790Z,1007.94
2017-08-25T00:27:39.795Z,1007.97
2017-08-25T00:27:55.109Z,1007.96
2017-08-25T00:28:09.053Z,1007.84
2017-08-25T00:28:23.033Z,1007.97
2017-08-25T00:28:31.765Z,1008.01
2017-08-25T00:28:41.517Z,1007.92
2017-08-25T00:28:51.256Z,1008.03
2017-08-25T00:29:01.001Z,1007.92
2017-08-25T00:29:10.743Z,1007.90
2017-08-25T00:29:20.461Z,1007.87
2017-08-25T00:29:36.601Z,1007.96
2017-08-25T00:29:46.341Z,1007.95
2017-08-25T00:29:56.123Z,1007.91
2017-08-25T00:30:05.816Z,1007.87
2017-08-25T00:30:15.544Z,1007.93
2017-08-25T00:30:25.286Z,1007.98
2017-08-25T00:30:35.033Z,1007.95
2017-08-25T00:30:44.782Z,1007.92
2017-08-25T00:30:54.529Z,1007.93
2017-08-25T00:31:04.241Z,1007.91
2017-08-25T00:31:13.998Z,1007.92
2017-08-25T00:31:28.932Z,1007.99
2017-08-25T00:31:42.888Z,1007.96
2017-08-25T00:31:51.665Z,1008.00
2017-08-25T00:32:01.383Z,1008.00
2017-08-25T00:32:11.134Z,1007.94
2017-08-25T00:32:20.872Z,1007.96
2017-08-25T00:32:30.616Z,1007.89
2017-08-25T00:32:40.337Z,1008.00
2017-08-25T00:32:50.088Z,1007.95
2017-08-25T00:32:59.841Z,1008.06
2017-08-25T00:33:09.589Z,1007.95
2017-08-25T00:33:19.297Z,1007.96
2017-08-25T00:33:29.041Z,1007.95
2017-08-25T00:33:38.789Z,1007.93
2017-08-25T00:33:48.516Z,1007.94
2017-08-25T00:33:58.269Z,1007.95
2017-08-25T00:34:07.988Z,1007.89
2017-08-25T00:34:17.753Z,1007.92
2017-08-25T00:34:27.479Z,1007.98
2017-08-25T00:34:42.437Z,1007.93
2017-08-25T00:34:56.389Z,1007.95
2017-08-25T00:35:05.161Z,1007.96
2017-08-25T00:35:14.898Z,1007.98
2017-08-25T00:35:24.608Z,1007.93
2017-08-25T00:35:34.362Z,1007.93
2017-08-25T00:35:44.089Z,1007.96
2017-08-25T00:36:00.031Z,1007.90
2017-08-25T00:36:09.381Z,1007.91
2017-08-25T00:36:19.138Z,1007.96
2017-08-25T00:36:34.089Z,1007.93
2017-08-25T00:36:42.824Z,1007.92
2017-08-25T00:36:52.573Z,1007.90
2017-08-25T00:37:02.313Z,1007.89
2017-08-25T00:37:12.057Z,1007.90
2017-08-25T00:37:21.789Z,1007.92
2017-08-25T00:37:31.532Z,1007.97
2017-08-25T00:37:51.586Z,1007.87
2017-08-25T00:38:04.857Z,1007.92
2017-08-25T00:38:13.991Z,1007.89
2017-08-25T00:38:23.740Z,1007.87
2017-08-25T00:38:33.483Z,1007.92
2017-08-25T00:38:43.217Z,1007.92
2017-08-25T00:38:52.948Z,1007.90
2017-08-25T00:39:07.897Z,1007.84
2017-08-25T00:39:16.657Z,1007.87
2017-08-25T00:39:42.533Z,1007.90
2017-08-25T00:39:52.257Z,1007.88
2017-08-25T00:40:02.030Z,1007.91
2017-08-25T00:40:11.740Z,1007.95
2017-08-25T00:40:21.484Z,1007.91
2017-08-25T00:40:32.825Z,1007.91
2017-08-25T00:40:42.568Z,1007.94
2017-08-25T00:40:52.312Z,1007.89
2017-08-25T00:41:02.044Z,1007.85
2017-08-25T00:41:11.795Z,1007.91
2017-08-25T00:41:26.714Z,1007.93
2017-08-25T00:41:35.477Z,1007.90
2017-08-25T00:41:45.232Z,1007.92
2017-08-25T00:41:54.960Z,1007.90
2017-08-25T00:42:09.896Z,1007.84
2017-08-25T00:42:18.648Z,1007.88
2017-08-25T00:42:28.402Z,1007.85
2017-08-25T00:42:39.739Z,1007.84
2017-08-25T00:42:49.489Z,1007.87
2017-08-25T00:43:04.410Z,1007.89
2017-08-25T00:43:13.181Z,1007.83
2017-08-25T00:43:28.116Z,1007.84
2017-08-25T00:43:36.873Z,1007.87
2017-08-25T00:43:55.839Z,1007.91
2017-08-25T00:44:05.382Z,1007.92
2017-08-25T00:44:20.314Z,1007.93
2017-08-25T00:44:29.097Z,1007.88
2017-08-25T00:44:38.812Z,1007.88
2017-08-25T00:44:48.571Z,1007.82
2017-08-25T00:45:03.521Z,1007.87
2017-08-25T00:45:12.264Z,1007.96
2017-08-25T00:45:22.000Z,1007.91
2017-08-25T00:45:38.941Z,1007.89
2017-08-25T00:45:48.904Z,1007.91
2017-08-25T00:45:58.645Z,1007.91
2017-08-25T00:46:08.401Z,1007.91
2017-08-25T00:46:18.136Z,1007.97
2017-08-25T00:46:27.874Z,1007.96
2017-08-25T00:46:37.617Z,1007.90
2017-08-25T00:46:47.355Z,1007.93
2017-08-25T00:46:57.090Z,1007.89
2017-08-25T00:47:06.824Z,1007.85
2017-08-25T00:47:16.568Z,1007.90
2017-08-25T00:47:31.499Z,1007.96
2017-08-25T00:47:40.253Z,1007.86
2017-08-25T00:47:49.997Z,1007.93
2017-08-25T00:47:59.749Z,1007.94
2017-08-25T00:48:09.485Z,1007.90
2017-08-25T00:48:19.357Z,1007.95
2017-08-25T00:48:28.944Z,1007.94
2017-08-25T00:48:43.896Z,1007.96
2017-08-25T00:48:52.669Z,1007.93
2017-08-25T00:49:02.389Z,1007.97
2017-08-25T00:49:12.127Z,1007.94
2017-08-25T00:49:21.856Z,1007.91
2017-08-25T00:49:31.605Z,1007.96
2017-08-25T00:49:48.532Z,1007.94
2017-08-25T00:50:03.737Z,1007.92
2017-08-25T00:50:12.475Z,1007.95
2017-08-25T00:50:22.228Z,1007.98
2017-08-25T00:50:31.941Z,1007.92
2017-08-25T00:50:43.297Z,1007.96
2017-08-25T00:50:53.044Z,1007.94
2017-08-25T00:51:02.773Z,1008.00
2017-08-25T00:51:17.726Z,1007.94
2017-08-25T00:51:26.484Z,1007.96
2017-08-25T00:51:36.203Z,1007.99
2017-08-25T00:51:45.953Z,1007.93
2017-08-25T00:51:55.682Z,1007.91
2017-08-25T00:52:10.641Z,1007.90
2017-08-25T00:52:19.385Z,1007.94
2017-08-25T00:52:29.121Z,1007.97
2017-08-25T00:52:38.864Z,1007.92
2017-08-25T00:52:48.600Z,1007.90
2017-08-25T00:53:02.049Z,1007.96
2017-08-25T00:53:12.301Z,1007.96
2017-08-25T00:53:22.049Z,1007.82
2017-08-25T00:53:31.792Z,1007.88
2017-08-25T00:53:50.722Z,1007.85
2017-08-25T00:54:05.734Z,1007.84
2017-08-25T00:54:15.975Z,1007.80
2017-08-25T00:54:25.706Z,1007.93
2017-08-25T00:54:35.431Z,1007.92
2017-08-25T00:54:45.163Z,1007.89
2017-08-25T00:54:54.913Z,1007.82
2017-08-25T00:55:04.663Z,1007.86
2017-08-25T00:55:14.382Z,1007.87
2017-08-25T00:55:24.117Z,1007.88
2017-08-25T00:55:39.056Z,1007.90
2017-08-25T00:55:47.816Z,1007.88
2017-08-25T00:55:57.561Z,1007.90
2017-08-25T00:56:07.328Z,1007.88
2017-08-25T00:56:17.041Z,1007.89
2017-08-25T00:56:26.765Z,1007.86
2017-08-25T00:56:41.712Z,1007.84
2017-08-25T00:56:55.697Z,1007.90
2017-08-25T00:57:04.440Z,1007.97
2017-08-25T00:57:14.184Z,1007.90
2017-08-25T00:57:23.917Z,1007.94
2017-08-25T00:57:33.684Z,1007.90
2017-08-25T00:57:43.400Z,1007.92
2017-08-25T00:57:53.146Z,1007.94
2017-08-25T00:58:02.877Z,1007.92
2017-08-25T00:58:22.878Z,1008.03
2017-08-25T00:58:37.191Z,1007.92
2017-08-25T00:58:46.935Z,1007.99
2017-08-25T00:58:56.677Z,1007.93
2017-08-25T00:59:06.457Z,1007.91
2017-08-25T00:59:19.384Z,1007.93
2017-08-25T00:59:29.111Z,1007.98
2017-08-25T00:59:38.829Z,1007.94
2017-08-25T00:59:48.569Z,1007.96
2017-08-25T00:59:58.312Z,1007.94
2017-08-25T01:00:08.062Z,1007.90
2017-08-25T01:00:17.793Z,1007.99
2017-08-25T01:00:27.512Z,1007.97
2017-08-25T01:00:42.468Z,1007.97
2017-08-25T01:00:51.247Z,1007.97
2017-08-25T01:01:01.003Z,1007.99
2017-08-25T01:01:10.716Z,1008.01
2017-08-25T01:01:20.444Z,1008.02
2017-08-25T01:01:30.188Z,1008.00
2017-08-25T01:01:39.937Z,1007.99
2017-08-25T01:01:49.664Z,1007.88
2017-08-25T01:01:59.397Z,1007.94
2017-08-25T01:02:09.149Z,1007.89
2017-08-25T01:02:18.876Z,1007.91
2017-08-25T01:02:28.625Z,1007.94
2017-08-25T01:02:38.359Z,1007.93
2017-08-25T01:02:48.093Z,1007.94
2017-08-25T01:02:57.816Z,1007.98
2017-08-25T01:03:12.769Z,1007.94
2017-08-25T01:03:21.536Z,1007.94
2017-08-25T01:03:36.515Z,1007.95
2017-08-25T01:03:45.277Z,1007.89
2017-08-25T01:04:00.188Z,1007.94
2017-08-25T01:04:08.961Z,1007.91
2017-08-25T01:04:18.689Z,1007.89
2017-08-25T01:04:33.638Z,1007.93
2017-08-25T01:04:47.588Z,1007.93
2017-08-25T01:05:08.806Z,1007.93
2017-08-25T01:05:22.555Z,1007.97
2017-08-25T01:05:37.494Z,1007.94
2017-08-25T01:05:46.263Z,1007.94
2017-08-25T01:05:55.989Z,1007.93
2017-08-25T01:06:11.945Z,1007.96
2017-08-25T01:06:21.318Z,1007.94
2017-08-25T01:06:36.239Z,1007.97
2017-08-25T01:06:50.225Z,1007.81
2017-08-25T01:06:58.969Z,1007.85
2017-08-25T01:07:08.692Z,1007.90
2017-08-25T01:07:20.065Z,1007.89
2017-08-25T01:07:29.784Z,1007.96
2017-08-25T01:07:46.341Z,1007.91
2017-08-25T01:07:56.736Z,1007.87
2017-08-25T01:08:06.413Z,1007.83
2017-08-25T01:08:16.162Z,1007.92
2017-08-25T01:08:32.084Z,1007.95
2017-08-25T01:08:41.458Z,1008.01
2017-08-25T01:08:51.211Z,1007.93
2017-08-25T01:09:00.980Z,1007.89
2017-08-25T01:09:15.875Z,1007.90
2017-08-25T01:09:24.648Z,1007.99
2017-08-25T01:09:34.385Z,1007.87
2017-08-25T01:09:49.320Z,1007.90
2017-08-25T01:09:58.077Z,1007.96
2017-08-25T01:10:07.823Z,1007.91
2017-08-25T01:10:17.582Z,1007.99
2017-08-25T01:10:27.298Z,1008.00
2017-08-25T01:10:37.037Z,1007.97
2017-08-25T01:10:46.785Z,1007.92
2017-08-25T01:10:56.525Z,1007.93
2017-08-25T01:11:15.501Z,1008.01
2017-08-25T01:11:29.230Z,1008.05
2017-08-25T01:11:44.201Z,1008.00
2017-08-25T01:11:52.943Z,1007.94
2017-08-25T01:12:02.687Z,1008.01
2017-08-25T01:12:21.758Z,1007.93
2017-08-25T01:12:35.412Z,1007.97
2017-08-25T01:12:45.156Z,1007.96
2017-08-25T01:12:54.899Z,1007.90
2017-08-25T01:13:04.627Z,1008.04
2017-08-25T01:13:14.371Z,1008.04
2017-08-25T01:13:24.101Z,1007.98
2017-08-25T01:13:33.836Z,1007.97
2017-08-25T01:13:43.573Z,1007.97
2017-08-25T01:13:53.317Z,1007.94
2017-08-25T01:14:08.258Z,1008.03
2017-08-25T01:14:17.030Z,1007.99
2017-08-25T01:14:26.759Z,1007.94
2017-08-25T01:14:37.104Z,1007.92
2017-08-25T01:14:46.280Z,1007.94
2017-08-25T01:14:55.968Z,1008.05
2017-08-25T01:15:05.696Z,1008.04
2017-08-25T01:15:15.484Z,1007.89
2017-08-25T01:15:25.185Z,1007.95
2017-08-25T01:15:34.928Z,1008.04
2017-08-25T01:15:44.664Z,1007.96
2017-08-25T01:15:54.393Z,1007.94
2017-08-25T01:16:04.131Z,1007.99
2017-08-25T01:16:13.886Z,1007.96
2017-08-25T01:16:23.613Z,1008.00
2017-08-25T01:16:33.349Z,1007.97
2017-08-25T01:16:43.081Z,1008.01
2017-08-25T01:16:59.653Z,1008.00
2017-08-25T01:17:09.112Z,1007.85
2017-08-25T01:17:18.130Z,1008.01
2017-08-25T01:17:27.876Z,1007.91
2017-08-25T01:17:37.632Z,1007.93
2017-08-25T01:17:47.354Z,1007.86
2017-08-25T01:17:57.088Z,1007.93
2017-08-25T01:18:06.835Z,1007.90
2017-08-25T01:18:16.577Z,1007.90
2017-08-25T01:18:27.905Z,1007.89
2017-08-25T01:18:37.661Z,1007.99
2017-08-25T01:18:47.389Z,1007.96
2017-08-25T01:19:02.321Z,1007.92
2017-08-25T01:19:14.330Z,1007.94
2017-08-25T01:19:35.487Z,1007.95
2017-08-25T01:19:47.710Z,1007.96
2017-08-25T01:19:57.440Z,1007.91
2017-08-25T01:20:07.194Z,1007.96
2017-08-25T01:20:16.929Z,1007.94
2017-08-25T01:20:26.649Z,1007.93
2017-08-25T01:20:45.663Z,1007.91
2017-08-25T01:21:05.908Z,1007.98
2017-08-25T01:21:18.773Z,1007.93
2017-08-25T01:21:31.085Z,1007.94
2017-08-25T01:21:47.617Z,1007.91
2017-08-25T01:22:04.796Z,1008.03
2017-08-25T01:22:13.561Z,1007.92
2017-08-25T01:22:33.668Z,1007.96
2017-08-25T01:22:46.874Z,1007.98
2017-08-25T01:22:56.028Z,1007.84
2017-08-25T01:23:05.764Z,1007.91
2017-08-25T01:23:15.493Z,1007.91
2017-08-25T01:23:33.164Z,1007.96
2017-08-25T01:23:42.405Z,1008.02
2017-08-25T01:23:52.133Z,1007.89
2017-08-25T01:24:01.876Z,1007.92
2017-08-25T01:24:11.620Z,1007.96
2017-08-25T01:24:21.353Z,1007.92
2017-08-25T01:24:36.305Z,1007.92
2017-08-25T01:24:45.062Z,1007.97
2017-08-25T01:24:54.805Z,1007.95
2017-08-25T01:25:04.536Z,1007.97
2017-08-25T01:25:15.900Z,1007.89
2017-08-25T01:25:25.650Z,1007.94
2017-08-25T01:25:36.971Z,1007.98
2017-08-25T01:25:48.327Z,1007.93
2017-08-25T01:25:58.045Z,1007.91
2017-08-25T01:26:07.780Z,1007.94
2017-08-25T01:26:17.516Z,1007.93
2017-08-25T01:26:27.244Z,1007.95
2017-08-25T01:26:36.991Z,1007.87
2017-08-25T01:26:48.325Z,1007.97
2017-08-25T01:27:03.492Z,1007.94
2017-08-25T01:27:19.937Z,1007.97
2017-08-25T01:27:34.500Z,1007.82
2017-08-25T01:27:43.248Z,1008.00
2017-08-25T01:27:53.029Z,1007.94
2017-08-25T01:28:02.722Z,1008.01
2017-08-25T01:28:14.072Z,1007.93
2017-08-25T01:28:23.810Z,1007.93
2017-08-25T01:28:33.549Z,1007.99
2017-08-25T01:28:43.317Z,1007.96
2017-08-25T01:28:53.032Z,1007.93
2017-08-25T01:29:02.758Z,1007.89
2017-08-25T01:29:12.500Z,1007.94
2017-08-25T01:29:22.256Z,1007.89
2017-08-25T01:29:41.234Z,1007.89
2017-08-25T01:29:56.561Z,1007.92
2017-08-25T01:30:06.305Z,1007.99
2017-08-25T01:30:21.280Z,1007.91
2017-08-25T01:30:30.041Z,1007.94
2017-08-25T01:30:39.756Z,1007.86
2017-08-25T01:30:51.113Z,1007.89
2017-08-25T01:31:00.835Z,1007.87
2017-08-25T01:31:10.561Z,1007.90
2017-08-25T01:31:20.307Z,1007.89
2017-08-25T01:31:30.059Z,1007.95
2017-08-25T01:31:39.801Z,1007.91
2017-08-25T01:31:49.523Z,1007.89
2017-08-25T01:31:59.249Z,1007.82
2017-08-25T01:32:08.992Z,1007.90
2017-08-25T01:32:18.737Z,1007.89
2017-08-25T01:32:28.461Z,1007.89
2017-08-25T01:32:54.341Z,1007.92
2017-08-25T01:33:04.072Z,1007.89
2017-08-25T01:33:13.811Z,1007.89
2017-08-25T01:33:28.802Z,1007.89
2017-08-25T01:33:40.742Z,1007.92
2017-08-25T01:33:50.466Z,1007.89
2017-08-25T01:34:00.216Z,1007.88
2017-08-25T01:34:11.569Z,1007.94
2017-08-25T01:34:26.500Z,1007.93
2017-08-25T01:34:35.244Z,1007.88
2017-08-25T01:34:44.981Z,1007.89
2017-08-25T01:34:54.717Z,1007.91
2017-08-25T01:35:06.080Z,1007.85
2017-08-25T01:35:21.005Z,1007.91
2017-08-25T01:35:29.788Z,1007.94
2017-08-25T01:35:39.496Z,1007.91
2017-08-25T01:35:49.232Z,1007.89
2017-08-25T01:36:00.586Z,1007.89
2017-08-25T01:36:19.709Z,1007.86
2017-08-25T01:36:32.296Z,1007.91
2017-08-25T01:36:41.446Z,1007.91
2017-08-25T01:36:51.196Z,1007.92
2017-08-25T01:37:02.527Z,1007.90
2017-08-25T01:37:12.277Z,1007.93
2017-08-25T01:37:23.640Z,1007.88
2017-08-25T01:37:39.547Z,1007.94
2017-08-25T01:37:53.709Z,1007.87
2017-08-25T01:38:03.449Z,1007.86
2017-08-25T01:38:13.190Z,1007.87
2017-08-25T01:38:22.936Z,1007.80
2017-08-25T01:38:32.656Z,1007.91
2017-08-25T01:38:42.393Z,1007.89
2017-08-25T01:38:52.132Z,1007.84
2017-08-25T01:39:08.693Z,1007.90
2017-08-25T01:39:25.864Z,1007.90
2017-08-25T01:39:36.264Z,1007.84
2017-08-25T01:39:51.148Z,1007.82
2017-08-25T01:40:06.124Z,1007.84
2017-08-25T01:40:15.481Z,1007.79
2017-08-25T01:40:32.041Z,1007.87
2017-08-25T01:40:44.012Z,1007.84
2017-08-25T01:40:55.332Z,1007.88
2017-08-25T01:41:05.057Z,1007.82
2017-08-25T01:41:14.798Z,1007.80
2017-08-25T01:41:24.537Z,1007.82
2017-08-25T01:41:34.264Z,1007.82
2017-08-25T01:41:43.996Z,1007.89
2017-08-25T01:41:53.760Z,1007.85
2017-08-25T01:42:05.093Z,1007.88
2017-08-25T01:42:15.076Z,1007.76
2017-08-25T01:42:24.578Z,1007.86
2017-08-25T01:42:34.297Z,1007.84
2017-08-25T01:42:55.603Z,1007.81
2017-08-25T01:43:07.729Z,1007.85
2017-08-25T01:43:17.445Z,1007.84
2017-08-25T01:43:28.852Z,1007.94
2017-08-25T01:43:38.545Z,1007.90
2017-08-25T01:43:48.273Z,1007.87
2017-08-25T01:43:58.001Z,1007.94
2017-08-25T01:44:07.736Z,1007.82
2017-08-25T01:44:23.694Z,1007.84
2017-08-25T01:44:33.069Z,1007.92
2017-08-25T01:44:44.373Z,1007.84
2017-08-25T01:44:55.722Z,1007.80
2017-08-25T01:45:05.457Z,1007.93
2017-08-25T01:45:16.833Z,1007.88
2017-08-25T01:45:35.769Z,1007.91
2017-08-25T01:45:50.513Z,1007.84
2017-08-25T01:46:00.928Z,1007.93
2017-08-25T01:46:24.112Z,1007.82
2017-08-25T01:46:34.265Z,1007.82
2017-08-25T01:46:49.428Z,1007.77
2017-08-25T01:46:59.864Z,1007.80
2017-08-25T01:47:09.421Z,1007.87
2017-08-25T01:47:25.706Z,1007.82
2017-08-25T01:47:35.291Z,1007.82
2017-08-25T01:47:50.242Z,1007.90
2017-08-25T01:47:58.985Z,1007.84
2017-08-25T01:48:08.747Z,1007.89
2017-08-25T01:48:18.460Z,1007.85
2017-08-25T01:48:28.217Z,1007.79
2017-08-25T01:48:38.072Z,1007.86
2017-08-25T01:48:47.688Z,1007.86
2017-08-25T01:48:57.420Z,1007.90
2017-08-25T01:49:08.769Z,1007.87
2017-08-25T01:49:20.098Z,1007.94
2017-08-25T01:49:29.844Z,1007.90
2017-08-25T01:49:39.593Z,1007.84
2017-08-25T01:49:49.304Z,1007.90
2017-08-25T01:49:59.040Z,1007.87
2017-08-25T01:50:08.780Z,1007.94
2017-08-25T01:50:23.741Z,1007.89
2017-08-25T01:50:35.737Z,1007.95
2017-08-25T01:50:45.461Z,1007.95
2017-08-25T01:51:00.385Z,1008.01
2017-08-25T01:51:09.151Z,1008.02
2017-08-25T01:51:18.875Z,1008.03
2017-08-25T01:51:28.644Z,1008.04
2017-08-25T01:51:38.365Z,1007.95
2017-08-25T01:51:51.300Z,1008.02
2017-08-25T01:52:06.248Z,1008.02
2017-08-25T01:52:15.009Z,1007.98
2017-08-25T01:52:24.733Z,1008.01
2017-08-25T01:52:34.481Z,1008.00
2017-08-25T01:52:44.212Z,1007.95
2017-08-25T01:52:53.940Z,1007.99
2017-08-25T01:53:03.672Z,1008.00
2017-08-25T01:53:36.369Z,1008.05
2017-08-25T01:53:45.146Z,1008.03
2017-08-25T01:53:56.456Z,1007.84
2017-08-25T01:54:07.805Z,1007.93
2017-08-25T01:54:17.761Z,1007.98
2017-08-25T01:54:27.281Z,1007.93
2017-08-25T01:54:37.024Z,1007.94
2017-08-25T01:54:46.761Z,1007.89
2017-08-25T01:54:56.488Z,1007.86
2017-08-25T01:55:12.444Z,1007.93
2017-08-25T01:55:21.801Z,1008.00
2017-08-25T01:55:38.349Z,1007.88
2017-08-25T01:55:50.366Z,1007.92
2017-08-25T01:56:00.051Z,1007.83
2017-08-25T01:56:09.801Z,1007.90
2017-08-25T01:56:26.577Z,1007.85
2017-08-25T01:56:36.973Z,1007.98
2017-08-25T01:56:46.537Z,1007.88
2017-08-25T01:56:56.266Z,1007.86
2017-08-25T01:57:06.001Z,1007.96
2017-08-25T01:57:15.749Z,1007.87
2017-08-25T01:57:25.473Z,1007.93
2017-08-25T01:57:35.212Z,1007.90
2017-08-25T01:57:44.949Z,1007.90
2017-08-25T01:57:54.693Z,1008.02
2017-08-25T01:58:04.421Z,1007.96
2017-08-25T01:58:15.785Z,1008.00
2017-08-25T01:58:25.525Z,1007.94
2017-08-25T01:58:35.244Z,1008.02
2017-08-25T01:58:44.981Z,1007.89
2017-08-25T01:58:54.717Z,1008.02
2017-08-25T01:59:04.457Z,1008.00
2017-08-25T01:59:15.799Z,1008.04
2017-08-25T01:59:25.536Z,1007.99
2017-08-25T01:59:45.562Z,1007.89
2017-08-25T01:59:58.881Z,1007.99
2017-08-25T02:00:08.015Z,1007.93
2017-08-25T02:00:17.810Z,1008.02
2017-08-25T02:00:29.077Z,1008.05
2017-08-25T02:00:38.823Z,1007.96
2017-08-25T02:00:48.556Z,1007.93
2017-08-25T02:01:05.129Z,1007.98
2017-08-25T02:01:20.653Z,1008.01
2017-08-25T02:01:29.428Z,1007.93
2017-08-25T02:01:39.161Z,1007.99
2017-08-25T02:01:54.125Z,1007.99
2017-08-25T02:02:08.120Z,1008.03
2017-08-25T02:02:16.853Z,1007.99
2017-08-25T02:02:32.010Z,1007.98
2017-08-25T02:02:42.527Z,1008.00
2017-08-25T02:02:51.998Z,1008.00
2017-08-25T02:03:03.320Z,1007.98
2017-08-25T02:03:13.065Z,1007.98
2017-08-25T02:03:22.813Z,1007.97
2017-08-25T02:03:32.540Z,1007.97
2017-08-25T02:03:42.280Z,1008.06
2017-08-25T02:03:53.631Z,1008.02
2017-08-25T02:04:04.965Z,1008.02
2017-08-25T02:04:14.705Z,1007.98
2017-08-25T02:04:26.041Z,1008.01
2017-08-25T02:04:35.770Z,1008.00
2017-08-25T02:04:45.509Z,1008.01
2017-08-25T02:04:55.254Z,1008.07
2017-08-25T02:05:04.988Z,1008.00
2017-08-25T02:05:14.756Z,1008.02
2017-08-25T02:05:24.468Z,1007.97
2017-08-25T02:05:34.197Z,1007.96
2017-08-25T02:05:54.572Z,1007.95
2017-08-25T02:06:13.576Z,1008.00
2017-08-25T02:06:24.659Z,1008.03
2017-08-25T02:06:34.425Z,1007.97
2017-08-25T02:06:44.137Z,1007.97
2017-08-25T02:06:53.896Z,1008.01
2017-08-25T02:07:08.829Z,1008.01
2017-08-25T02:07:17.584Z,1008.02
2017-08-25T02:07:27.324Z,1007.94
2017-08-25T02:07:37.065Z,1007.98
2017-08-25T02:07:53.609Z,1008.00
2017-08-25T02:08:02.367Z,1008.00
2017-08-25T02:08:12.118Z,1008.00
2017-08-25T02:08:21.843Z,1007.97
2017-08-25T02:08:31.596Z,1007.96
2017-08-25T02:08:41.348Z,1007.93
2017-08-25T02:08:51.070Z,1008.00
2017-08-25T02:09:07.008Z,1008.03
2017-08-25T02:09:16.365Z,1007.94
2017-08-25T02:09:26.104Z,1008.02
2017-08-25T02:09:35.837Z,1007.98
2017-08-25T02:09:45.576Z,1008.00
2017-08-25T02:09:55.304Z,1008.00
2017-08-25T02:10:05.061Z,1008.02
2017-08-25T02:10:20.006Z,1008.06
2017-08-25T02:10:28.743Z,1007.98
2017-08-25T02:10:44.717Z,1007.96
2017-08-25T02:10:54.064Z,1008.03
2017-08-25T02:11:03.809Z,1007.97
2017-08-25T02:11:13.536Z,1008.07
2017-08-25T02:11:23.293Z,1008.06
2017-08-25T02:11:33.021Z,1008.00
2017-08-25T02:11:42.769Z,1008.01
2017-08-25T02:11:52.496Z,1007.99
2017-08-25T02:12:02.235Z,1008.00
2017-08-25T02:12:11.977Z,1008.05
2017-08-25T02:12:21.713Z,1008.00
2017-08-25T02:12:31.452Z,1008.03
2017-08-25T02:12:41.182Z,1007.98
2017-08-25T02:12:50.930Z,1008.01
2017-08-25T02:13:00.669Z,1007.94
2017-08-25T02:13:10.408Z,1007.96
2017-08-25T02:13:20.149Z,1007.99
2017-08-25T02:13:29.879Z,1008.01
2017-08-25T02:13:39.625Z,1007.96
2017-08-25T02:13:49.353Z,1007.96
2017-08-25T02:13:59.092Z,1007.95
2017-08-25T02:14:19.071Z,1007.91